createdAt,value
2022-08-17T00:02:25.876Z,1.30
2022-08-17T00:04:54.916Z,1.43
2022-08-17T00:07:22.561Z,1.70
2022-08-17T00:09:49.750Z,1.60
2022-08-17T00:15:10.875Z,1.20
2022-08-17T00:17:38.387Z,1.20
2022-08-17T00:20:06.358Z,1.35
2022-08-17T00:22:36.543Z,1.58
2022-08-17T00:25:09.509Z,1.40
2022-08-17T00:27:37.039Z,1.23
2022-08-17T00:30:09.848Z,1.27
2022-08-17T00:33:14.778Z,1.17
2022-08-17T00:35:29.833Z,1.10
2022-08-17T00:37:57.033Z,1.58
2022-08-17T00:40:24.812Z,1.38
2022-08-17T00:42:53.223Z,1.03
2022-08-17T00:45:21.052Z,1.30
2022-08-17T00:47:49.460Z,1.50
2022-08-17T00:50:18.751Z,1.23
2022-08-17T00:52:53.533Z,1.30
2022-08-17T00:55:21.392Z,1.53
2022-08-17T00:57:55.524Z,1.27
2022-08-17T01:00:31.456Z,1.70
2022-08-17T01:03:08.506Z,1.30
2022-08-17T01:05:42.360Z,1.30
2022-08-17T01:08:13.611Z,1.50
2022-08-17T01:10:58.443Z,1.30
2022-08-17T01:13:41.268Z,1.52
2022-08-17T01:16:20.324Z,1.63
2022-08-17T01:18:50.485Z,1.17
2022-08-17T01:21:26.898Z,1.23
2022-08-17T01:23:54.108Z,1.42
2022-08-17T01:26:21.876Z,1.58
2022-08-17T01:28:54.926Z,1.70
2022-08-17T01:31:25.183Z,1.55
2022-08-17T01:33:52.725Z,1.00
2022-08-17T01:36:20.247Z,1.55
2022-08-17T01:38:47.411Z,1.70
2022-08-17T01:41:16.547Z,1.73
2022-08-17T01:43:54.688Z,1.48
2022-08-17T01:46:27.588Z,1.07
2022-08-17T01:48:57.314Z,1.40
2022-08-17T01:51:32.852Z,1.75
2022-08-17T01:54:13.367Z,1.92
2022-08-17T01:56:43.786Z,1.30
2022-08-17T01:59:15.827Z,1.33
2022-08-17T02:01:43.647Z,1.70
2022-08-17T02:04:11.161Z,1.83
2022-08-17T02:06:52.474Z,1.20
2022-08-17T02:09:29.534Z,1.30
2022-08-17T02:11:59.612Z,1.70
2022-08-17T02:14:27.059Z,1.70
2022-08-17T02:16:54.438Z,1.75
2022-08-17T02:19:22.411Z,1.60
2022-08-17T02:21:52.676Z,1.60
2022-08-17T02:24:58.875Z,1.30
2022-08-17T02:27:11.556Z,1.25
2022-08-17T02:29:38.629Z,1.30
2022-08-17T02:32:06.067Z,1.52
2022-08-17T02:34:33.184Z,1.77
2022-08-17T02:37:00.346Z,1.40
2022-08-17T02:39:27.497Z,1.50
2022-08-17T02:42:01.892Z,1.48
2022-08-17T02:44:38.677Z,1.40
2022-08-17T02:47:08.985Z,1.65
2022-08-17T02:49:36.842Z,1.10
2022-08-17T02:52:05.793Z,1.27
2022-08-17T02:54:41.405Z,1.48
2022-08-17T02:57:10.205Z,1.75
2022-08-17T02:59:39.519Z,1.40
2022-08-17T03:02:11.764Z,1.20
2022-08-17T03:04:38.900Z,1.83
2022-08-17T03:07:06.710Z,1.67
2022-08-17T03:09:33.960Z,1.40
2022-08-17T03:12:10.965Z,1.30
2022-08-17T03:14:41.682Z,1.27
2022-08-17T03:17:17.018Z,1.30
2022-08-17T03:19:44.919Z,1.40
2022-08-17T03:22:35.986Z,1.60
2022-08-17T03:24:59.222Z,1.77
2022-08-17T03:27:26.649Z,1.40
2022-08-17T03:29:54.390Z,1.95
2022-08-17T03:32:21.514Z,1.67
2022-08-17T03:34:48.846Z,1.70
2022-08-17T03:37:15.967Z,1.70
2022-08-17T03:39:47.444Z,1.53
2022-08-17T03:42:32.188Z,1.40
2022-08-17T03:45:01.547Z,1.33
2022-08-17T03:47:47.220Z,1.65
2022-08-17T03:50:34.097Z,1.58
2022-08-17T03:53:24.976Z,1.40
2022-08-17T03:56:10.628Z,1.20
2022-08-17T03:58:37.853Z,1.65
2022-08-17T04:01:06.743Z,1.25
2022-08-17T04:03:34.031Z,1.50
2022-08-17T04:06:02.198Z,1.43
2022-08-17T04:08:29.931Z,1.70
2022-08-17T04:13:49.203Z,1.65
2022-08-17T04:16:16.819Z,1.73
2022-08-17T04:18:47.163Z,1.60
2022-08-17T04:21:14.336Z,1.52
2022-08-17T04:23:41.501Z,1.58
2022-08-17T04:26:08.818Z,1.70
2022-08-17T04:28:36.004Z,2.08
2022-08-17T04:31:03.251Z,2.07
2022-08-17T04:33:30.999Z,1.77
2022-08-17T04:38:52.289Z,1.90
2022-08-17T04:41:38.313Z,1.65
2022-08-17T04:44:11.555Z,1.77
2022-08-17T04:46:39.264Z,2.00
2022-08-17T04:49:09.195Z,1.90
2022-08-17T04:51:39.746Z,2.38
2022-08-17T04:54:20.817Z,2.30
2022-08-17T04:59:38.991Z,2.00
2022-08-17T05:02:06.073Z,1.83
2022-08-17T05:04:35.155Z,2.10
2022-08-17T05:07:03.226Z,1.80
2022-08-17T05:09:30.987Z,1.70
2022-08-17T05:12:03.862Z,1.83
2022-08-17T05:14:33.097Z,2.10
2022-08-17T05:17:01.984Z,2.03
2022-08-17T05:19:34.713Z,2.15
2022-08-17T05:22:05.694Z,2.37
2022-08-17T05:24:42.531Z,2.13
2022-08-17T05:27:18.824Z,1.98
2022-08-17T05:29:46.355Z,2.30
2022-08-17T05:32:39.084Z,2.40
2022-08-17T05:35:01.284Z,2.40
2022-08-17T05:37:28.648Z,2.80
2022-08-17T05:39:55.868Z,2.80
2022-08-17T05:42:24.189Z,2.67
2022-08-17T05:44:51.416Z,3.42
2022-08-17T05:47:18.543Z,3.10
2022-08-17T05:49:48.881Z,2.72
2022-08-17T05:52:19.743Z,3.22
2022-08-17T05:57:53.310Z,3.72
2022-08-17T06:00:26.350Z,3.23
2022-08-17T06:09:37.653Z,3.88
2022-08-17T06:12:30.665Z,4.03
2022-08-17T06:15:11.308Z,3.73
2022-08-17T06:17:39.007Z,3.47
2022-08-17T06:20:11.401Z,3.95
2022-08-17T06:22:45.357Z,4.20
2022-08-17T06:25:35.650Z,3.45
2022-08-17T06:28:05.920Z,3.80
2022-08-17T06:30:59.218Z,4.40
2022-08-17T06:33:34.455Z,4.05
2022-08-17T06:36:34.070Z,4.50
2022-08-17T06:39:31.925Z,4.43
2022-08-17T06:43:04.981Z,3.30
2022-08-17T06:45:36.658Z,4.22
2022-08-17T06:48:15.243Z,4.00
2022-08-17T06:50:49.155Z,4.43
2022-08-17T06:53:19.042Z,4.30
2022-08-17T06:56:08.937Z,4.03
2022-08-17T06:58:40.233Z,4.10
2022-08-17T07:01:28.342Z,4.35
2022-08-17T07:04:17.264Z,4.93
2022-08-17T07:12:45.887Z,4.57
2022-08-17T07:15:20.071Z,4.78
2022-08-17T07:17:48.520Z,5.07
2022-08-17T07:20:20.871Z,5.00
2022-08-17T07:26:05.549Z,4.97
2022-08-17T07:28:34.922Z,5.25
2022-08-17T07:31:04.701Z,4.78
2022-08-17T07:33:34.029Z,5.05
2022-08-17T07:36:01.628Z,4.33
2022-08-17T07:38:33.939Z,5.65
2022-08-17T07:41:06.307Z,5.40
2022-08-17T07:43:39.457Z,5.50
2022-08-17T07:46:34.248Z,5.60
2022-08-17T07:49:03.215Z,6.03
2022-08-17T07:51:33.873Z,6.50
2022-08-17T07:54:22.368Z,5.93
2022-08-17T07:56:51.209Z,7.10
2022-08-17T07:59:40.740Z,6.47
2022-08-17T08:02:17.092Z,6.50
2022-08-17T08:07:52.277Z,6.30
2022-08-17T08:10:35.621Z,6.07
2022-08-17T08:13:25.335Z,6.85
2022-08-17T08:15:55.833Z,6.60
2022-08-17T08:18:54.995Z,6.00
2022-08-17T08:21:33.383Z,7.28
2022-08-17T08:24:22.448Z,6.35
2022-08-17T08:27:09.851Z,6.93
2022-08-17T08:29:57.686Z,6.97
2022-08-17T08:33:00.129Z,7.18
2022-08-17T08:35:42.047Z,6.55
2022-08-17T08:38:40.213Z,6.93
2022-08-17T08:41:18.662Z,6.88
2022-08-17T08:44:01.670Z,7.60
2022-08-17T08:46:43.907Z,6.95
2022-08-17T08:49:45.150Z,7.45
2022-08-17T08:52:39.997Z,5.60
2022-08-17T08:55:27.120Z,6.68
2022-08-17T08:57:54.212Z,6.83
2022-08-17T09:00:24.732Z,6.88
2022-08-17T09:03:49.732Z,7.00
2022-08-17T09:06:33.211Z,6.78
2022-08-17T09:09:15.101Z,7.38
2022-08-17T09:12:02.255Z,6.43
2022-08-17T09:14:45.263Z,6.32
2022-08-17T09:17:19.539Z,7.20
2022-08-17T09:19:54.301Z,6.07
2022-08-17T09:22:52.730Z,5.72
2022-08-17T09:25:27.036Z,4.37
2022-08-17T09:28:16.345Z,4.55
2022-08-17T09:30:47.142Z,4.50
2022-08-17T09:33:19.608Z,4.40
2022-08-17T09:36:05.474Z,4.03
2022-08-17T09:38:45.171Z,3.80
2022-08-17T09:41:15.950Z,4.30
2022-08-17T09:43:58.233Z,3.90
2022-08-17T09:46:30.698Z,3.85
2022-08-17T09:49:45.902Z,3.38
2022-08-17T09:52:23.854Z,3.43
2022-08-17T09:54:53.441Z,3.20
2022-08-17T09:57:30.332Z,3.78
2022-08-17T10:00:17.181Z,3.88
2022-08-17T10:03:16.081Z,3.35
2022-08-17T10:05:49.400Z,3.30
2022-08-17T10:08:27.753Z,3.60
2022-08-17T10:11:08.077Z,3.90
2022-08-17T10:14:07.874Z,4.07
2022-08-17T10:17:05.023Z,2.97
2022-08-17T10:19:45.324Z,3.40
2022-08-17T10:26:04.724Z,3.47
2022-08-17T10:28:39.480Z,3.00
2022-08-17T10:34:27.231Z,2.50
2022-08-17T10:37:21.685Z,2.97
2022-08-17T10:40:26.372Z,3.58
2022-08-17T10:43:20.961Z,3.00
2022-08-17T10:46:31.191Z,2.90
2022-08-17T10:49:17.142Z,2.60
2022-08-17T10:51:50.168Z,2.80
2022-08-17T10:57:38.181Z,3.08
2022-08-17T11:00:17.295Z,3.10
2022-08-17T11:06:01.649Z,3.28
2022-08-17T11:08:58.348Z,2.97
2022-08-17T11:11:49.953Z,2.72
2022-08-17T11:14:41.274Z,3.47
2022-08-17T11:17:19.122Z,3.47
2022-08-17T11:19:49.266Z,3.47
2022-08-17T11:22:42.568Z,3.60
2022-08-17T11:25:15.490Z,2.85
2022-08-17T11:27:43.966Z,3.55
2022-08-17T11:30:32.916Z,3.63
2022-08-17T11:33:29.666Z,3.25
2022-08-17T11:36:23.673Z,2.97
2022-08-17T11:42:34.351Z,2.97
2022-08-17T11:45:32.473Z,2.90
2022-08-17T11:48:56.178Z,2.88
2022-08-17T11:51:44.695Z,2.90
2022-08-17T11:54:38.004Z,2.65
2022-08-17T11:57:43.069Z,2.88
2022-08-17T12:00:47.061Z,2.83
2022-08-17T12:03:38.931Z,2.72
2022-08-17T12:06:24.904Z,2.58
2022-08-17T12:09:10.259Z,2.20
2022-08-17T12:15:11.749Z,2.83
2022-08-17T12:17:43.041Z,2.58
2022-08-17T12:20:27.923Z,2.75
2022-08-17T12:23:20.229Z,2.72
2022-08-17T12:25:59.583Z,2.72
2022-08-17T12:28:30.283Z,2.53
2022-08-17T12:31:05.877Z,2.67
2022-08-17T12:33:35.813Z,2.67
2022-08-17T12:36:06.539Z,2.90
2022-08-17T12:38:36.196Z,2.70
2022-08-17T12:41:26.101Z,2.17
2022-08-17T12:44:03.730Z,2.40
2022-08-17T12:46:35.819Z,2.65
2022-08-17T12:49:19.653Z,2.20
2022-08-17T12:51:47.771Z,2.58
2022-08-17T12:54:34.028Z,2.67
2022-08-17T12:57:09.093Z,2.60
2022-08-17T12:59:41.451Z,2.75
2022-08-17T13:02:24.573Z,2.78
2022-08-17T13:04:51.833Z,2.40
2022-08-17T13:07:46.694Z,2.43
2022-08-17T13:10:32.867Z,2.58
2022-08-17T13:13:17.678Z,2.25
2022-08-17T13:15:55.358Z,2.22
2022-08-17T13:18:31.572Z,2.53
2022-08-17T13:20:59.372Z,2.40
2022-08-17T13:23:32.403Z,1.95
2022-08-17T13:26:16.047Z,2.17
2022-08-17T13:28:49.712Z,2.00
2022-08-17T13:34:19.012Z,2.40
2022-08-17T13:36:48.824Z,2.10
2022-08-17T13:39:22.635Z,2.58
2022-08-17T13:41:51.699Z,2.20
2022-08-17T13:44:32.925Z,2.38
2022-08-17T13:47:02.332Z,2.40
2022-08-17T13:49:48.128Z,2.40
2022-08-17T13:52:43.135Z,2.40
2022-08-17T13:55:20.874Z,2.17
2022-08-17T14:00:41.460Z,2.40
2022-08-17T14:03:08.560Z,2.38
2022-08-17T14:05:39.435Z,2.53
2022-08-17T14:08:07.224Z,2.33
2022-08-17T14:10:36.420Z,2.60
2022-08-17T14:13:05.312Z,2.30
2022-08-17T14:15:55.725Z,2.28
2022-08-17T14:18:49.835Z,2.47
2022-08-17T14:21:09.595Z,2.25
2022-08-17T14:23:37.380Z,2.85
2022-08-17T14:26:05.083Z,2.50
2022-08-17T14:28:32.308Z,2.63
2022-08-17T14:31:00.750Z,2.40
2022-08-17T14:33:28.828Z,2.40
2022-08-17T14:35:57.602Z,2.50
2022-08-17T14:38:25.233Z,2.60
2022-08-17T14:40:52.667Z,2.20
2022-08-17T14:43:20.957Z,1.85
2022-08-17T14:45:48.144Z,1.98
2022-08-17T14:48:15.909Z,2.50
2022-08-17T14:50:43.983Z,2.00
2022-08-17T14:53:14.903Z,2.05
2022-08-17T14:55:46.979Z,2.20
2022-08-17T14:58:15.845Z,2.15
2022-08-17T15:00:43.677Z,2.08
2022-08-17T15:03:11.804Z,2.17
2022-08-17T15:05:40.130Z,2.05
2022-08-17T15:08:08.250Z,2.40
2022-08-17T15:13:27.640Z,2.22
2022-08-17T15:15:54.909Z,2.50
2022-08-17T15:18:22.718Z,1.98
2022-08-17T15:20:50.287Z,2.05
2022-08-17T15:23:20.914Z,2.35
2022-08-17T15:25:50.112Z,2.22
2022-08-17T15:28:17.376Z,2.17
2022-08-17T15:30:45.085Z,2.10
2022-08-17T15:33:15.136Z,2.15
2022-08-17T15:36:09.146Z,2.38
2022-08-17T15:38:39.683Z,2.53
2022-08-17T15:41:15.114Z,2.13
2022-08-17T15:43:44.522Z,2.35
2022-08-17T15:46:16.606Z,2.63
2022-08-17T15:48:46.141Z,2.15
2022-08-17T15:51:17.643Z,2.33
2022-08-17T15:53:50.624Z,2.60
2022-08-17T15:56:18.600Z,2.42
2022-08-17T15:58:47.259Z,1.88
2022-08-17T16:01:35.178Z,2.15
2022-08-17T16:04:13.283Z,2.10
2022-08-17T16:06:52.528Z,1.97
2022-08-17T16:09:19.650Z,2.33
2022-08-17T16:11:53.685Z,2.38
2022-08-17T16:14:24.578Z,2.10
2022-08-17T16:16:59.622Z,2.17
2022-08-17T16:19:26.759Z,2.20
2022-08-17T16:21:53.925Z,1.92
2022-08-17T16:24:21.059Z,2.42
2022-08-17T16:26:48.260Z,2.22
2022-08-17T16:29:15.436Z,2.25
2022-08-17T16:31:43.276Z,1.77
2022-08-17T16:34:16.813Z,1.98
2022-08-17T16:36:51.735Z,2.17
2022-08-17T16:39:27.510Z,2.15
2022-08-17T16:41:56.100Z,2.00
2022-08-17T16:44:23.773Z,2.00
2022-08-17T16:46:50.945Z,2.10
2022-08-17T16:49:35.574Z,2.53
2022-08-17T16:52:07.647Z,2.15
2022-08-17T16:54:37.986Z,2.20
2022-08-17T16:57:05.591Z,2.40
2022-08-17T16:59:41.894Z,2.42
2022-08-17T17:02:14.579Z,2.67
2022-08-17T17:05:13.763Z,1.80
2022-08-17T17:07:55.488Z,2.38
2022-08-17T17:10:30.129Z,2.17
2022-08-17T17:13:02.547Z,2.38
2022-08-17T17:15:59.859Z,2.28
2022-08-17T17:18:55.443Z,2.22
2022-08-17T17:21:31.289Z,2.42
2022-08-17T17:24:06.820Z,2.50
2022-08-17T17:26:48.884Z,1.92
2022-08-17T17:29:54.430Z,2.40
2022-08-17T17:32:37.798Z,2.30
2022-08-17T17:35:10.551Z,2.33
2022-08-17T17:37:40.028Z,2.13
2022-08-17T17:40:15.282Z,2.03
2022-08-17T17:42:44.004Z,2.33
2022-08-17T17:45:26.039Z,2.13
2022-08-17T17:47:53.552Z,2.53
2022-08-17T17:50:45.918Z,2.00
2022-08-17T17:53:22.516Z,1.98
2022-08-17T17:56:34.274Z,2.58
2022-08-17T17:59:28.430Z,2.45
2022-08-17T18:02:06.979Z,2.40
2022-08-17T18:04:49.504Z,2.17
2022-08-17T18:07:28.603Z,1.83
2022-08-17T18:10:29.740Z,2.05
2022-08-17T18:13:00.709Z,2.00
2022-08-17T18:15:34.051Z,2.45
2022-08-17T18:18:19.807Z,2.00
2022-08-17T18:20:55.973Z,2.00
2022-08-17T18:23:28.215Z,2.03
2022-08-17T18:25:57.123Z,2.10
2022-08-17T18:28:40.814Z,2.50
2022-08-17T18:31:19.695Z,2.57
2022-08-17T18:33:55.585Z,2.10
2022-08-17T18:39:28.666Z,1.92
2022-08-17T18:41:58.395Z,2.50
2022-08-17T18:44:43.974Z,1.87
2022-08-17T18:47:24.962Z,2.00
2022-08-17T18:49:58.563Z,2.22
2022-08-17T18:52:29.915Z,1.75
2022-08-17T18:55:00.228Z,2.10
2022-08-17T18:57:48.456Z,1.93
2022-08-17T19:00:41.904Z,2.00
2022-08-17T19:03:18.387Z,2.17
2022-08-17T19:06:14.970Z,1.73
2022-08-17T19:08:42.103Z,1.85
2022-08-17T19:11:19.157Z,2.43
2022-08-17T19:14:08.000Z,1.98
2022-08-17T19:16:49.188Z,1.83
2022-08-17T19:19:55.365Z,2.22
2022-08-17T19:22:44.740Z,1.75
2022-08-17T19:25:22.811Z,1.30
2022-08-17T19:28:03.114Z,1.90
2022-08-17T19:30:30.820Z,1.80
2022-08-17T19:32:58.463Z,1.90
2022-08-17T19:35:39.939Z,2.10
2022-08-17T19:38:16.295Z,2.13
2022-08-17T19:41:05.243Z,1.77
2022-08-17T19:44:01.923Z,1.60
2022-08-17T19:46:59.504Z,1.83
2022-08-17T19:49:41.027Z,1.73
2022-08-17T19:52:17.744Z,1.77
2022-08-17T19:54:56.495Z,1.55
2022-08-17T19:58:01.404Z,2.13
2022-08-17T20:00:31.181Z,2.30
2022-08-17T20:03:16.152Z,2.10
2022-08-17T20:06:12.139Z,1.73
2022-08-17T20:08:59.363Z,2.08
2022-08-17T20:11:49.051Z,2.35
2022-08-17T20:14:23.629Z,1.90
2022-08-17T20:16:51.370Z,1.80
2022-08-17T20:19:24.461Z,1.93
2022-08-17T20:22:17.648Z,2.38
2022-08-17T20:24:47.933Z,2.50
2022-08-17T20:27:31.548Z,2.15
2022-08-17T20:30:01.752Z,2.20
2022-08-17T20:32:33.298Z,1.83
2022-08-17T20:35:09.298Z,1.98
2022-08-17T20:37:43.202Z,1.95
2022-08-17T20:40:10.370Z,2.13
2022-08-17T20:42:37.614Z,1.67
2022-08-17T20:45:26.435Z,1.47
2022-08-17T20:50:57.579Z,1.90
2022-08-17T20:53:59.980Z,2.05
2022-08-17T20:56:50.101Z,1.95
2022-08-17T20:59:21.218Z,1.80
2022-08-17T21:02:21.720Z,2.10
2022-08-17T21:04:52.850Z,2.00
2022-08-17T21:07:33.137Z,1.85
2022-08-17T21:10:21.668Z,2.22
2022-08-17T21:13:14.001Z,2.03
2022-08-17T21:15:49.308Z,1.50
2022-08-17T21:18:29.265Z,1.95
2022-08-17T21:21:52.254Z,2.03
2022-08-17T21:24:51.803Z,1.92
2022-08-17T21:27:34.801Z,1.80
2022-08-17T21:30:01.957Z,1.77
2022-08-17T21:32:36.224Z,2.05
2022-08-17T21:35:25.852Z,2.28
2022-08-17T21:37:58.983Z,2.20
2022-08-17T21:40:30.031Z,1.90
2022-08-17T21:43:04.762Z,1.90
2022-08-17T21:48:45.229Z,2.03
2022-08-17T21:51:20.722Z,2.10
2022-08-17T21:53:50.918Z,2.10
2022-08-17T21:56:46.792Z,2.55
2022-08-17T21:59:19.797Z,2.80
2022-08-17T22:01:58.631Z,2.95
2022-08-17T22:04:40.700Z,3.10
2022-08-17T22:07:11.071Z,2.60
2022-08-17T22:09:47.689Z,2.53
2022-08-17T22:12:24.236Z,2.60
2022-08-17T22:15:06.010Z,3.38
2022-08-17T22:17:35.917Z,2.17
2022-08-17T22:20:18.814Z,2.23
2022-08-17T22:23:04.664Z,2.00
2022-08-17T22:25:56.155Z,1.70
2022-08-17T22:29:01.910Z,1.80
2022-08-17T22:31:50.991Z,1.75
2022-08-17T22:34:18.181Z,1.93
2022-08-17T22:36:45.957Z,2.13
2022-08-17T22:39:13.404Z,1.80
2022-08-17T22:41:50.558Z,2.42
2022-08-17T22:44:31.730Z,2.10
2022-08-17T22:47:01.025Z,1.87
2022-08-17T22:49:53.812Z,2.20
2022-08-17T22:53:00.835Z,2.30
2022-08-17T22:55:49.385Z,2.60
2022-08-17T22:58:38.329Z,1.83
2022-08-17T23:01:33.347Z,2.40
2022-08-17T23:04:13.182Z,2.15
2022-08-17T23:06:43.646Z,2.40
2022-08-17T23:09:10.759Z,2.15
2022-08-17T23:11:49.331Z,2.05
2022-08-17T23:14:19.835Z,1.60
2022-08-17T23:16:48.679Z,1.75
2022-08-17T23:19:19.792Z,2.40
2022-08-17T23:21:48.741Z,2.53
2022-08-17T23:24:26.214Z,2.10
2022-08-17T23:26:54.624Z,2.27
2022-08-17T23:29:22.535Z,2.10
2022-08-17T23:31:51.077Z,2.40
2022-08-17T23:34:18.626Z,1.77
2022-08-17T23:36:52.277Z,2.40
2022-08-17T23:39:24.606Z,2.40
2022-08-17T23:41:58.172Z,2.50
2022-08-17T23:44:26.940Z,2.20
2022-08-17T23:46:54.614Z,2.30
2022-08-17T23:49:21.786Z,2.40
2022-08-17T23:51:49.453Z,2.77
2022-08-17T23:54:35.553Z,2.50
2022-08-17T23:57:04.845Z,3.05
2022-08-17T23:59:33.868Z,3.03
